createdAt,value
2022-10-10T00:00:50.592Z,3.23
2022-10-10T00:03:18.556Z,2.97
2022-10-10T00:05:45.466Z,2.90
2022-10-10T00:08:12.248Z,3.10
2022-10-10T00:10:39.057Z,3.03
2022-10-10T00:13:06.423Z,3.30
2022-10-10T00:15:33.622Z,2.73
2022-10-10T00:18:00.367Z,3.10
2022-10-10T00:20:27.435Z,3.80
2022-10-10T00:22:55.022Z,3.30
2022-10-10T00:25:21.832Z,3.17
2022-10-10T00:27:48.655Z,3.23
2022-10-10T00:30:18.295Z,3.50
2022-10-10T00:32:45.280Z,3.00
2022-10-10T00:35:12.566Z,3.40
2022-10-10T00:37:39.502Z,3.33
2022-10-10T00:40:07.346Z,3.83
2022-10-10T00:42:34.549Z,2.80
2022-10-10T00:45:22.534Z,3.63
2022-10-10T00:47:51.370Z,4.03
2022-10-10T00:50:22.348Z,3.63
2022-10-10T00:52:49.829Z,3.23
2022-10-10T00:55:17.999Z,3.67
2022-10-10T00:57:45.471Z,3.57
2022-10-10T01:00:12.881Z,3.20
2022-10-10T01:02:39.704Z,3.23
2022-10-10T01:05:06.706Z,3.30
2022-10-10T01:07:33.852Z,3.30
2022-10-10T01:10:06.499Z,3.23
2022-10-10T01:12:36.037Z,3.00
2022-10-10T01:15:31.597Z,3.17
2022-10-10T01:18:01.067Z,3.00
2022-10-10T01:20:41.151Z,3.63
2022-10-10T01:23:29.134Z,3.37
2022-10-10T01:26:20.710Z,3.10
2022-10-10T01:29:30.132Z,3.63
2022-10-10T01:32:15.418Z,3.70
2022-10-10T01:35:01.778Z,3.93
2022-10-10T01:37:39.442Z,3.87
2022-10-10T01:40:16.497Z,3.80
2022-10-10T01:42:56.679Z,3.27
2022-10-10T01:45:24.320Z,3.43
2022-10-10T01:47:53.967Z,3.70
2022-10-10T01:50:24.109Z,3.13
2022-10-10T01:53:11.235Z,3.33
2022-10-10T01:56:06.291Z,3.63
2022-10-10T01:58:59.210Z,3.43
2022-10-10T02:02:04.730Z,3.27
2022-10-10T02:04:31.604Z,3.43
2022-10-10T02:07:39.029Z,3.67
2022-10-10T02:10:07.900Z,3.43
2022-10-10T02:12:36.217Z,2.97
2022-10-10T02:15:11.252Z,3.30
2022-10-10T02:17:39.901Z,3.10
2022-10-10T02:20:08.932Z,3.20
2022-10-10T02:22:38.775Z,3.70
2022-10-10T02:25:06.610Z,3.13
2022-10-10T02:27:58.158Z,4.00
2022-10-10T02:30:25.175Z,3.17
2022-10-10T02:32:56.500Z,3.07
2022-10-10T02:35:28.666Z,3.53
2022-10-10T02:37:55.978Z,3.43
2022-10-10T02:40:26.329Z,3.70
2022-10-10T02:42:56.224Z,3.47
2022-10-10T02:45:23.595Z,3.67
2022-10-10T02:47:51.176Z,3.57
2022-10-10T02:50:18.121Z,3.90
2022-10-10T02:52:44.912Z,3.13
2022-10-10T02:55:12.479Z,3.37
2022-10-10T02:57:39.351Z,4.10
2022-10-10T03:00:07.232Z,4.00
2022-10-10T03:02:33.989Z,3.70
2022-10-10T03:05:00.811Z,3.70
2022-10-10T03:07:27.605Z,3.73
2022-10-10T03:09:54.434Z,3.90
2022-10-10T03:12:21.264Z,3.87
2022-10-10T03:14:48.041Z,4.00
2022-10-10T03:17:14.951Z,4.20
2022-10-10T03:19:41.803Z,4.07
2022-10-10T03:22:08.641Z,4.07
2022-10-10T03:24:35.543Z,4.00
2022-10-10T03:27:02.322Z,3.67
2022-10-10T03:29:29.328Z,4.30
2022-10-10T03:31:56.070Z,4.00
2022-10-10T03:34:22.913Z,4.37
2022-10-10T03:36:49.720Z,4.23
2022-10-10T03:39:16.509Z,3.83
2022-10-10T03:41:43.545Z,4.10
2022-10-10T03:44:10.293Z,4.57
2022-10-10T03:46:37.093Z,3.97
2022-10-10T03:49:03.872Z,4.27
2022-10-10T03:51:30.707Z,4.50
2022-10-10T03:53:57.561Z,4.17
2022-10-10T03:56:25.036Z,4.33
2022-10-10T03:58:51.846Z,4.10
2022-10-10T04:01:18.686Z,4.23
2022-10-10T04:03:49.924Z,3.80
2022-10-10T04:06:19.483Z,4.77
2022-10-10T04:08:46.313Z,3.87
2022-10-10T04:11:13.414Z,4.07
2022-10-10T04:13:40.211Z,4.50
2022-10-10T04:16:07.032Z,4.17
2022-10-10T04:18:33.907Z,4.67
2022-10-10T04:21:07.215Z,4.30
2022-10-10T04:23:34.130Z,4.10
2022-10-10T04:26:00.870Z,4.60
2022-10-10T04:28:28.105Z,4.17
2022-10-10T04:30:56.649Z,4.30
2022-10-10T04:33:23.624Z,4.13
2022-10-10T04:35:50.646Z,3.93
2022-10-10T04:38:18.410Z,5.17
2022-10-10T04:40:45.272Z,4.40
2022-10-10T04:43:12.025Z,4.10
2022-10-10T04:45:39.090Z,4.47
2022-10-10T04:48:05.869Z,4.30
2022-10-10T04:50:33.234Z,4.47
2022-10-10T04:52:59.997Z,4.87
2022-10-10T04:55:26.795Z,4.53
2022-10-10T04:57:53.912Z,4.53
2022-10-10T05:00:20.992Z,4.73
2022-10-10T05:02:48.080Z,4.43
2022-10-10T05:05:15.213Z,4.60
2022-10-10T05:07:41.953Z,4.70
2022-10-10T05:10:09.215Z,4.50
2022-10-10T05:12:35.988Z,4.27
2022-10-10T05:15:02.745Z,5.40
2022-10-10T05:17:29.458Z,4.43
2022-10-10T05:19:56.253Z,4.57
2022-10-10T05:22:23.061Z,5.13
2022-10-10T05:24:50.088Z,4.73
2022-10-10T05:27:16.893Z,4.97
2022-10-10T05:29:43.655Z,4.53
2022-10-10T05:32:10.771Z,4.93
2022-10-10T05:34:38.441Z,4.67
2022-10-10T05:37:05.503Z,4.43
2022-10-10T05:39:32.453Z,4.77
2022-10-10T05:41:59.565Z,5.20
2022-10-10T05:44:26.520Z,4.50
2022-10-10T05:46:53.290Z,4.97
2022-10-10T05:49:20.258Z,5.20
2022-10-10T05:51:47.504Z,5.00
2022-10-10T05:54:14.323Z,5.27
2022-10-10T05:56:41.952Z,4.80
2022-10-10T05:59:08.796Z,4.53
2022-10-10T06:01:37.032Z,4.77
2022-10-10T06:04:03.955Z,5.40
2022-10-10T06:06:30.855Z,5.00
2022-10-10T06:08:59.007Z,4.37
2022-10-10T06:11:26.711Z,5.33
2022-10-10T06:13:57.324Z,4.70
2022-10-10T06:16:27.966Z,4.77
2022-10-10T06:18:57.159Z,5.30
2022-10-10T06:21:25.199Z,4.93
2022-10-10T06:23:52.345Z,4.97
2022-10-10T06:26:19.090Z,5.40
2022-10-10T06:28:46.444Z,4.60
2022-10-10T06:31:14.422Z,4.80
2022-10-10T06:33:45.672Z,4.80
2022-10-10T06:36:14.314Z,5.57
2022-10-10T06:38:45.508Z,5.23
2022-10-10T06:41:13.153Z,4.80
2022-10-10T06:43:41.416Z,5.20
2022-10-10T06:46:08.368Z,5.13
2022-10-10T06:48:35.765Z,4.87
2022-10-10T06:51:06.187Z,5.20
2022-10-10T06:53:33.672Z,4.93
2022-10-10T06:56:00.997Z,5.70
2022-10-10T06:58:29.617Z,5.07
2022-10-10T07:00:59.629Z,4.77
2022-10-10T07:03:28.503Z,5.60
2022-10-10T07:05:58.353Z,4.50
2022-10-10T07:08:25.854Z,5.63
2022-10-10T07:10:52.866Z,4.80
2022-10-10T07:13:20.295Z,4.67
2022-10-10T07:15:47.275Z,4.77
2022-10-10T07:18:14.419Z,4.90
2022-10-10T07:20:41.847Z,5.00
2022-10-10T07:23:08.651Z,5.70
2022-10-10T07:25:38.357Z,5.17
2022-10-10T07:28:06.269Z,4.97
2022-10-10T07:30:33.683Z,5.50
2022-10-10T07:33:00.570Z,5.53
2022-10-10T07:35:27.630Z,5.20
2022-10-10T07:37:56.062Z,4.67
2022-10-10T07:40:23.764Z,5.07
2022-10-10T07:42:50.967Z,4.80
2022-10-10T07:45:18.363Z,5.33
2022-10-10T07:47:45.328Z,4.90
2022-10-10T07:50:13.069Z,4.97
2022-10-10T07:52:40.653Z,5.13
2022-10-10T07:55:08.818Z,4.57
2022-10-10T07:57:35.944Z,5.57
2022-10-10T08:00:09.475Z,5.10
2022-10-10T08:02:39.356Z,4.97
2022-10-10T08:05:06.613Z,5.30
2022-10-10T08:07:33.426Z,4.90
2022-10-10T08:10:02.385Z,5.23
2022-10-10T08:12:29.416Z,4.53
2022-10-10T08:14:56.275Z,5.47
2022-10-10T08:17:22.981Z,5.10
2022-10-10T08:19:49.808Z,4.80
2022-10-10T08:22:16.607Z,4.90
2022-10-10T08:24:43.424Z,4.53
2022-10-10T08:27:10.253Z,4.77
2022-10-10T08:29:38.025Z,5.00
2022-10-10T08:32:04.846Z,4.23
2022-10-10T08:34:31.693Z,4.40
2022-10-10T08:36:58.579Z,4.30
2022-10-10T08:39:25.625Z,4.43
2022-10-10T08:41:56.845Z,3.70
2022-10-10T08:44:53.008Z,4.00
2022-10-10T08:47:45.216Z,4.10
2022-10-10T08:50:20.033Z,4.05
2022-10-10T08:53:01.581Z,3.95
2022-10-10T08:55:32.275Z,3.90
2022-10-10T08:58:11.457Z,3.97
2022-10-10T09:00:43.341Z,4.05
2022-10-10T09:03:48.702Z,4.38
2022-10-10T09:06:39.698Z,4.35
2022-10-10T09:09:15.440Z,4.63
2022-10-10T09:12:13.153Z,3.72
2022-10-10T09:14:46.602Z,3.70
2022-10-10T09:17:54.551Z,4.57
2022-10-10T09:20:35.406Z,4.20
2022-10-10T09:23:12.206Z,4.28
2022-10-10T09:25:51.001Z,4.43
2022-10-10T09:28:26.921Z,3.97
2022-10-10T09:30:57.680Z,4.15
2022-10-10T09:33:33.851Z,4.05
2022-10-10T09:36:05.406Z,4.35
2022-10-10T09:38:38.885Z,3.90
2022-10-10T09:41:25.525Z,3.67
2022-10-10T09:43:58.632Z,4.22
2022-10-10T09:46:26.775Z,4.38
2022-10-10T09:48:55.188Z,4.15
2022-10-10T09:51:22.375Z,4.63
2022-10-10T09:53:50.201Z,4.45
2022-10-10T09:56:27.194Z,4.75
2022-10-10T09:58:55.996Z,3.85
2022-10-10T10:01:25.837Z,3.97
2022-10-10T10:04:29.783Z,4.43
2022-10-10T10:07:06.260Z,5.03
2022-10-10T10:09:33.746Z,4.20
2022-10-10T10:12:00.659Z,4.35
2022-10-10T10:14:36.626Z,3.88
2022-10-10T10:17:09.774Z,4.10
2022-10-10T10:19:42.558Z,3.80
2022-10-10T10:22:34.358Z,4.05
2022-10-10T10:25:31.708Z,3.90
2022-10-10T10:28:31.516Z,4.38
2022-10-10T10:30:59.436Z,4.10
2022-10-10T10:33:33.148Z,4.10
2022-10-10T10:36:19.197Z,3.75
2022-10-10T10:38:52.123Z,4.82
2022-10-10T10:41:43.028Z,4.13
2022-10-10T10:44:23.348Z,4.47
2022-10-10T10:47:25.115Z,3.90
2022-10-10T10:50:00.905Z,4.43
2022-10-10T10:52:37.034Z,4.28
2022-10-10T10:55:33.141Z,4.70
2022-10-10T10:59:04.884Z,4.65
2022-10-10T11:01:44.809Z,4.30
2022-10-10T11:05:20.346Z,3.72
2022-10-10T11:07:20.033Z,4.18
2022-10-10T11:09:51.847Z,4.43
2022-10-10T11:12:57.124Z,4.10
2022-10-10T11:15:54.185Z,4.00
2022-10-10T11:18:27.853Z,3.83
2022-10-10T11:21:24.785Z,4.00
2022-10-10T11:23:56.501Z,3.92
2022-10-10T11:26:38.242Z,3.75
2022-10-10T11:29:20.024Z,4.18
2022-10-10T11:32:15.088Z,4.57
2022-10-10T11:34:50.510Z,4.72
2022-10-10T11:37:24.578Z,4.35
2022-10-10T11:39:59.880Z,3.88
2022-10-10T11:42:37.517Z,4.80
2022-10-10T11:45:24.240Z,4.47
2022-10-10T11:48:04.151Z,4.43
2022-10-10T11:50:39.418Z,4.78
2022-10-10T11:53:31.142Z,4.22
2022-10-10T11:56:37.309Z,4.68
2022-10-10T11:59:22.051Z,5.22
2022-10-10T12:01:54.009Z,4.63
2022-10-10T12:04:22.514Z,4.95
2022-10-10T12:06:55.346Z,4.50
2022-10-10T12:09:33.466Z,5.13
2022-10-10T12:12:13.509Z,4.88
2022-10-10T12:14:48.148Z,4.38
2022-10-10T12:17:21.497Z,5.28
2022-10-10T12:19:50.946Z,5.32
2022-10-10T12:22:29.788Z,5.55
2022-10-10T12:25:18.426Z,5.85
2022-10-10T12:27:49.220Z,5.05
2022-10-10T12:30:20.427Z,5.40
2022-10-10T12:32:48.000Z,5.05
2022-10-10T12:35:28.412Z,6.22
2022-10-10T12:38:15.282Z,5.07
2022-10-10T12:40:57.368Z,5.63
2022-10-10T12:43:36.222Z,5.60
2022-10-10T12:46:22.537Z,5.57
2022-10-10T12:49:25.227Z,5.68
2022-10-10T12:52:20.980Z,5.85
2022-10-10T12:54:50.047Z,5.65
2022-10-10T12:57:33.336Z,6.90
2022-10-10T13:00:18.039Z,6.50
2022-10-10T13:02:48.423Z,6.60
2022-10-10T13:05:20.701Z,6.70
2022-10-10T13:07:50.184Z,7.23
2022-10-10T13:10:27.229Z,6.83
2022-10-10T13:13:16.501Z,6.53
2022-10-10T13:15:58.172Z,8.07
2022-10-10T13:18:39.721Z,7.30
2022-10-10T13:21:13.091Z,7.50
2022-10-10T13:26:38.866Z,7.37
2022-10-10T13:29:18.432Z,7.60
2022-10-10T13:31:45.516Z,7.87
2022-10-10T13:34:17.389Z,7.80
2022-10-10T13:36:45.614Z,7.57
2022-10-10T13:39:16.805Z,7.73
2022-10-10T13:41:47.943Z,7.17
2022-10-10T13:44:20.662Z,4.67
2022-10-10T13:46:47.556Z,1.53
2022-10-10T13:49:28.882Z,1.10
2022-10-10T13:52:20.084Z,2.10
2022-10-10T13:54:48.613Z,1.53
2022-10-10T13:57:26.380Z,1.30
2022-10-10T14:00:02.766Z,1.20
2022-10-10T14:02:36.324Z,1.47
2022-10-10T14:05:09.337Z,1.57
2022-10-10T14:07:36.678Z,1.47
2022-10-10T14:10:09.109Z,1.30
2022-10-10T14:12:44.056Z,1.67
2022-10-10T14:15:42.770Z,1.20
2022-10-10T14:18:22.136Z,1.40
2022-10-10T14:20:49.790Z,1.20
2022-10-10T14:23:17.382Z,1.37
2022-10-10T14:25:46.812Z,1.07
2022-10-10T14:28:21.002Z,1.20
2022-10-10T14:30:48.243Z,1.50
2022-10-10T14:33:17.985Z,1.20
2022-10-10T14:35:46.307Z,1.63
2022-10-10T14:38:14.120Z,1.37
2022-10-10T14:40:46.980Z,1.23
2022-10-10T14:43:14.129Z,1.93
2022-10-10T14:45:40.919Z,1.90
2022-10-10T14:48:07.777Z,1.70
2022-10-10T14:50:37.289Z,1.80
2022-10-10T14:53:04.946Z,1.97
2022-10-10T14:55:31.838Z,1.67
2022-10-10T14:57:58.605Z,2.37
2022-10-10T15:00:27.359Z,2.27
2022-10-10T15:02:54.187Z,2.20
2022-10-10T15:05:21.041Z,2.57
2022-10-10T15:07:50.419Z,2.78
2022-10-10T15:10:34.382Z,2.57
2022-10-10T15:13:03.139Z,2.90
2022-10-10T15:15:30.472Z,2.60
2022-10-10T15:17:58.335Z,2.55
2022-10-10T15:20:30.915Z,1.97
2022-10-10T15:22:59.858Z,2.55
2022-10-10T15:25:33.142Z,2.47
2022-10-10T15:28:04.571Z,2.00
2022-10-10T15:30:31.473Z,2.63
2022-10-10T15:32:58.446Z,2.30
2022-10-10T15:35:26.242Z,2.13
2022-10-10T15:37:53.434Z,2.37
2022-10-10T15:40:23.612Z,1.63
2022-10-10T15:42:51.073Z,2.10
2022-10-10T15:45:43.579Z,1.63
2022-10-10T15:48:05.954Z,1.93
2022-10-10T15:50:36.027Z,1.90
2022-10-10T15:53:03.006Z,1.87
2022-10-10T15:55:29.996Z,2.00
2022-10-10T15:57:56.876Z,1.97
2022-10-10T16:00:23.939Z,1.40
2022-10-10T16:02:50.782Z,2.10
2022-10-10T16:05:17.717Z,2.33
2022-10-10T16:07:48.345Z,2.13
2022-10-10T16:10:16.195Z,2.47
2022-10-10T16:12:43.276Z,2.13
2022-10-10T16:15:10.276Z,1.87
2022-10-10T16:17:37.040Z,2.07
2022-10-10T16:20:04.504Z,2.20
2022-10-10T16:22:31.587Z,2.47
2022-10-10T16:25:17.692Z,2.00
2022-10-10T16:27:45.394Z,1.50
2022-10-10T16:30:12.512Z,1.87
2022-10-10T16:32:42.406Z,1.73
2022-10-10T16:35:10.678Z,2.07
2022-10-10T16:37:38.173Z,1.80
2022-10-10T16:40:05.720Z,1.53
2022-10-10T16:42:32.724Z,1.70
2022-10-10T16:44:59.615Z,1.70
2022-10-10T16:47:26.411Z,2.17
2022-10-10T16:49:53.184Z,1.77
2022-10-10T16:52:20.003Z,1.40
2022-10-10T16:54:51.131Z,1.67
2022-10-10T16:57:18.850Z,1.67
2022-10-10T16:59:45.798Z,1.43
2022-10-10T17:02:13.101Z,1.47
2022-10-10T17:04:39.873Z,1.87
2022-10-10T17:07:06.720Z,1.87
2022-10-10T17:09:33.748Z,1.50
2022-10-10T17:12:00.504Z,1.33
2022-10-10T17:14:27.262Z,1.43
2022-10-10T17:19:40.971Z,1.47
2022-10-10T17:22:07.986Z,1.83
2022-10-10T17:24:35.931Z,2.00
2022-10-10T17:27:02.703Z,1.93
2022-10-10T17:29:29.472Z,2.30
2022-10-10T17:31:56.245Z,13.50
2022-10-10T17:34:23.262Z,3.00
2022-10-10T17:36:50.085Z,2.17
2022-10-10T17:39:16.990Z,2.17
2022-10-10T17:41:45.920Z,1.73
2022-10-10T17:44:24.044Z,1.90
2022-10-10T17:46:50.794Z,1.80
2022-10-10T17:49:19.421Z,1.73
2022-10-10T17:51:46.238Z,1.83
2022-10-10T17:54:13.561Z,2.07
2022-10-10T17:56:44.735Z,1.83
2022-10-10T17:59:12.336Z,1.63
2022-10-10T18:01:40.012Z,1.73
2022-10-10T18:04:07.564Z,1.70
2022-10-10T18:06:37.136Z,2.27
2022-10-10T18:09:04.187Z,1.57
2022-10-10T18:11:31.810Z,1.70
2022-10-10T18:14:01.758Z,2.60
2022-10-10T18:16:33.980Z,2.10
2022-10-10T18:19:03.404Z,1.83
2022-10-10T18:21:30.306Z,1.93
2022-10-10T18:23:57.166Z,1.60
2022-10-10T18:26:26.742Z,2.33
2022-10-10T18:28:55.540Z,2.03
2022-10-10T18:31:28.259Z,1.93
2022-10-10T18:33:55.692Z,2.00
2022-10-10T18:36:25.285Z,1.40
2022-10-10T18:38:52.513Z,1.97
2022-10-10T18:41:24.674Z,2.13
2022-10-10T18:43:52.098Z,1.70
2022-10-10T18:46:22.521Z,2.50
2022-10-10T18:48:53.712Z,1.43
2022-10-10T18:51:24.499Z,1.67
2022-10-10T18:53:58.597Z,1.60
2022-10-10T18:56:25.510Z,1.77
2022-10-10T18:58:55.375Z,1.73
2022-10-10T19:01:25.247Z,1.97
2022-10-10T19:03:54.211Z,2.30
2022-10-10T19:06:23.393Z,2.63
2022-10-10T19:08:58.799Z,2.40
2022-10-10T19:11:34.519Z,1.93
2022-10-10T19:14:04.228Z,2.20
2022-10-10T19:16:31.364Z,1.77
2022-10-10T19:18:59.439Z,2.17
2022-10-10T19:21:28.082Z,1.83
2022-10-10T19:23:55.426Z,1.97
2022-10-10T19:26:22.325Z,2.70
2022-10-10T19:28:49.258Z,2.37
2022-10-10T19:31:18.068Z,1.70
2022-10-10T19:33:45.728Z,1.70
2022-10-10T19:36:13.359Z,1.70
2022-10-10T19:38:41.960Z,2.27
2022-10-10T19:41:10.689Z,2.20
2022-10-10T19:43:37.428Z,2.63
2022-10-10T19:46:06.874Z,1.50
2022-10-10T19:48:34.966Z,2.17
2022-10-10T19:51:11.693Z,2.47
2022-10-10T19:53:39.859Z,2.07
2022-10-10T19:56:11.943Z,4.67
2022-10-10T19:58:39.504Z,1.60
2022-10-10T20:01:08.637Z,2.30
2022-10-10T20:03:35.495Z,1.50
2022-10-10T20:06:03.181Z,1.73
2022-10-10T20:08:30.785Z,1.70
2022-10-10T20:10:58.972Z,2.30
2022-10-10T20:13:25.813Z,2.00
2022-10-10T20:15:52.675Z,1.80
2022-10-10T20:18:21.922Z,1.67
2022-10-10T20:20:51.562Z,2.07
2022-10-10T20:23:21.541Z,1.63
2022-10-10T20:25:48.366Z,1.77
2022-10-10T20:28:18.375Z,1.97
2022-10-10T20:30:50.752Z,2.40
2022-10-10T20:33:19.456Z,2.37
2022-10-10T20:35:46.947Z,2.50
2022-10-10T20:38:16.269Z,2.70
2022-10-10T20:40:44.563Z,3.60
2022-10-10T20:43:12.270Z,2.63
2022-10-10T20:45:40.449Z,1.93
2022-10-10T20:48:08.198Z,2.30
2022-10-10T20:50:36.338Z,2.63
2022-10-10T20:53:03.540Z,1.70
2022-10-10T20:55:30.613Z,1.53
2022-10-10T20:57:57.360Z,2.33
2022-10-10T21:00:24.261Z,1.73
2022-10-10T21:02:51.166Z,2.13
2022-10-10T21:05:17.962Z,2.40
2022-10-10T21:07:45.982Z,2.37
2022-10-10T21:10:12.822Z,1.70
2022-10-10T21:12:39.641Z,2.30
2022-10-10T21:15:06.898Z,2.13
2022-10-10T21:17:33.687Z,1.80
2022-10-10T21:20:00.709Z,2.13
2022-10-10T21:22:27.533Z,2.20
2022-10-10T21:24:54.289Z,2.47
2022-10-10T21:27:21.066Z,2.13
2022-10-10T21:29:47.901Z,2.50
2022-10-10T21:32:14.642Z,1.87
2022-10-10T21:34:41.360Z,2.20
2022-10-10T21:37:08.173Z,1.60
2022-10-10T21:39:35.019Z,2.13
2022-10-10T21:42:02.427Z,1.70
2022-10-10T21:44:29.247Z,1.87
2022-10-10T21:46:56.002Z,1.30
2022-10-10T21:49:22.898Z,1.90
2022-10-10T21:51:50.146Z,1.87
2022-10-10T21:54:17.007Z,2.10
2022-10-10T21:56:43.803Z,1.50
2022-10-10T21:59:11.814Z,2.00
2022-10-10T22:01:38.561Z,1.63
2022-10-10T22:04:06.202Z,1.97
2022-10-10T22:06:33.126Z,1.40
2022-10-10T22:09:01.730Z,2.03
2022-10-10T22:11:30.657Z,1.77
2022-10-10T22:13:57.982Z,1.70
2022-10-10T22:16:24.845Z,1.47
2022-10-10T22:18:56.358Z,1.50
2022-10-10T22:21:28.032Z,1.50
2022-10-10T22:23:57.865Z,2.00
2022-10-10T22:26:24.625Z,1.60
2022-10-10T22:28:51.432Z,1.90
2022-10-10T22:31:19.046Z,1.70
2022-10-10T22:33:45.872Z,1.70
2022-10-10T22:36:12.907Z,1.47
2022-10-10T22:38:41.876Z,2.20
2022-10-10T22:41:09.426Z,1.63
2022-10-10T22:43:36.418Z,1.73
2022-10-10T22:46:04.169Z,1.70
2022-10-10T22:48:31.108Z,1.97
2022-10-10T22:51:03.276Z,1.60
2022-10-10T22:53:30.697Z,1.80
2022-10-10T22:55:57.703Z,1.43
2022-10-10T22:58:25.159Z,1.47
2022-10-10T23:00:52.697Z,1.87
2022-10-10T23:03:20.394Z,1.80
2022-10-10T23:05:47.185Z,1.60
2022-10-10T23:08:13.942Z,2.00
2022-10-10T23:10:40.982Z,1.80
2022-10-10T23:13:07.744Z,2.20
2022-10-10T23:15:34.447Z,1.37
2022-10-10T23:18:01.192Z,1.93
2022-10-10T23:20:28.084Z,2.17
2022-10-10T23:22:55.381Z,2.10
2022-10-10T23:25:22.510Z,1.90
2022-10-10T23:27:49.879Z,1.47
2022-10-10T23:30:17.119Z,1.60
2022-10-10T23:32:43.903Z,1.53
2022-10-10T23:35:11.265Z,1.63
2022-10-10T23:37:38.022Z,2.00
2022-10-10T23:40:05.346Z,2.03
2022-10-10T23:42:32.888Z,1.30
2022-10-10T23:44:59.646Z,2.00
2022-10-10T23:47:26.429Z,1.73
2022-10-10T23:49:53.250Z,1.93
2022-10-10T23:52:20.088Z,1.97
2022-10-10T23:54:46.866Z,1.50
2022-10-10T23:57:13.648Z,1.67
2022-10-10T23:59:40.336Z,1.70
